Colfax, Indiana
Current Conditions -  °F | °C
As of 11:35 AM on Saturday 22 Nov 2014 (Local Time) from KFKR Reporting Station
Overcast Overcast  
Wind Chill: 42°   Ceiling: 4100
Heat Index: 48°   Visibility: 10mi
Dew Point: 42°   Wind: 15mph
Humidity: 82%   Direction: 180°S
Pressure: 30.11"   Gusts: 21mph
Location:  40.2°N, 86.67°W
Report Text: KFKR 221635Z AUTO 18013G18KT 10SM OVC041 09/06 A3011 RMK AO2 T00870058
Loading
Personal Weather Stations






























Interactive Weather Map New forecast layout! Learn more

10-Day Weather Forecast

Advertisements
Track Severe Weather on mobile